Time;durP1;ratioP1;P1;durP2;ratioP2;P2;SDS_P1;SDS_P2;PMS_P1;PMS_P2;Temp;Humidity;BMP_temperature;BMP_pressure;BME280_temperature;BME280_humidity;BME280_pressure;Samples;Min_cycle;Max_cycle;Signal;HPM_P1;HPM_P2
2023/07/25 00:00:09;;;;;;;8.48;3.95;;;;;;;;;;5091203;28;20312;-65
2023/07/25 00:02:35;;;;;;;9.35;4.03;;;;;;;;;;5091016;28;20016;-67
2023/07/25 00:05:00;;;;;;;7.60;4.32;;;;;;;;;;5083777;28;20038;-65
2023/07/25 00:07:25;;;;;;;8.38;3.80;;;;;;;;;;5091054;28;20019;-66
2023/07/25 00:09:51;;;;;;;7.57;3.50;;;;;;;;;;5084802;28;20028;-62
2023/07/25 00:12:17;;;;;;;8.32;3.75;;;;;;;;;;5090342;28;20017;-65
2023/07/25 00:14:42;;;;;;;5.90;3.10;;;;;;;;;;5082988;28;20020;-65
2023/07/25 00:17:09;;;;;;;7.83;3.57;;;;;;;;;;5090979;28;20254;-66
2023/07/25 00:19:35;;;;;;;7.60;3.80;;;;;;;;;;5084024;28;20457;-68
2023/07/25 00:22:02;;;;;;;7.47;3.60;;;;;;;;;;5088942;28;20925;-69
2023/07/25 00:24:28;;;;;;;6.82;3.65;;;;;;;;;;5090327;27;20258;-68
2023/07/25 00:26:55;;;;;;;7.90;3.87;;;;;;;;;;5088371;28;20072;-67
2023/07/25 00:29:21;;;;;;;8.05;3.78;;;;;;;;;;5093184;28;20094;-69
2023/07/25 00:31:48;;;;;;;8.70;3.97;;;;;;;;;;5091017;28;20018;-67
2023/07/25 00:34:14;;;;;;;8.40;3.75;;;;;;;;;;5091275;28;20258;-68
2023/07/25 00:36:39;;;;;;;9.18;3.95;;;;;;;;;;5088809;28;20028;-68
2023/07/25 00:39:05;;;;;;;7.22;3.75;;;;;;;;;;5085629;28;20024;-66
2023/07/25 00:41:30;;;;;;;7.78;3.67;;;;;;;;;;5089689;28;20079;-65
2023/07/25 00:43:56;;;;;;;8.18;3.90;;;;;;;;;;5085491;28;20066;-68
2023/07/25 00:46:21;;;;;;;8.47;4.07;;;;;;;;;;5085997;28;20023;-68
2023/07/25 00:48:46;;;;;;;7.87;3.47;;;;;;;;;;5089007;28;20028;-68
2023/07/25 00:51:12;;;;;;;6.67;3.63;;;;;;;;;;5088061;28;20291;-65
2023/07/25 00:53:37;;;;;;;8.27;3.83;;;;;;;;;;5087779;28;20253;-65
2023/07/25 00:56:04;;;;;;;6.90;3.90;;;;;;;;;;5089857;28;20016;-68
2023/07/25 00:58:29;;;;;;;6.97;3.67;;;;;;;;;;5089312;28;20059;-63
2023/07/25 01:01:03;;;;;;;6.97;3.65;;;;;;;;;;5081828;28;20146;-66
2023/07/25 01:03:29;;;;;;;7.22;3.60;;;;;;;;;;5085444;28;20024;-64
2023/07/25 01:05:55;;;;;;;9.63;4.00;;;;;;;;;;5086178;28;20026;-63
2023/07/25 01:08:20;;;;;;;8.95;4.03;;;;;;;;;;5091600;28;20070;-68
2023/07/25 01:10:48;;;;;;;10.07;4.10;;;;;;;;;;5083893;28;20514;-69
2023/07/25 01:13:15;;;;;;;8.98;3.92;;;;;;;;;;5086952;28;20008;-67
2023/07/25 01:15:41;;;;;;;7.20;3.33;;;;;;;;;;5089098;28;20030;-66
2023/07/25 01:18:10;;;;;;;5.43;2.33;;;;;;;;;;5086257;28;20052;-71
2023/07/25 01:20:38;;;;;;;5.63;1.92;;;;;;;;;;5087590;28;20020;-66
2023/07/25 01:23:05;;;;;;;6.70;1.75;;;;;;;;;;5087596;28;20015;-66
2023/07/25 01:25:30;;;;;;;7.35;1.65;;;;;;;;;;5089463;28;20023;-64
2023/07/25 01:27:55;;;;;;;5.47;1.20;;;;;;;;;;5092491;28;20026;-62
2023/07/25 01:30:20;;;;;;;4.20;1.10;;;;;;;;;;5090264;28;20189;-64
2023/07/25 01:32:46;;;;;;;4.68;1.35;;;;;;;;;;5090791;28;20264;-65
2023/07/25 01:35:11;;;;;;;4.40;0.90;;;;;;;;;;5088985;28;20529;-61
2023/07/25 01:37:36;;;;;;;3.97;1.00;;;;;;;;;;5087604;28;20028;-61
2023/07/25 01:40:02;;;;;;;3.80;1.10;;;;;;;;;;5084793;28;20108;-62
2023/07/25 01:42:27;;;;;;;4.25;1.00;;;;;;;;;;5085365;28;20588;-62
2023/07/25 01:44:52;;;;;;;4.23;1.20;;;;;;;;;;5088115;28;20887;-61
2023/07/25 01:47:18;;;;;;;3.03;1.10;;;;;;;;;;5086162;28;20274;-63
2023/07/25 01:49:43;;;;;;;3.85;1.15;;;;;;;;;;5090225;28;20330;-62
2023/07/25 01:52:08;;;;;;;3.00;1.00;;;;;;;;;;5088760;28;20016;-61
2023/07/25 01:54:36;;;;;;;3.63;0.90;;;;;;;;;;5089882;28;20623;-60
2023/07/25 01:57:01;;;;;;;3.65;1.02;;;;;;;;;;5087259;28;20022;-62
2023/07/25 01:59:28;;;;;;;3.70;0.90;;;;;;;;;;5092258;28;20274;-66
2023/07/25 02:01:53;;;;;;;4.25;1.20;;;;;;;;;;5090346;28;20019;-65
2023/07/25 02:04:18;;;;;;;3.23;0.97;;;;;;;;;;5086728;28;20035;-63
2023/07/25 02:06:46;;;;;;;4.95;1.10;;;;;;;;;;5080810;28;20712;-67
2023/07/25 02:09:11;;;;;;;5.18;1.30;;;;;;;;;;5084273;28;20019;-63
2023/07/25 02:11:39;;;;;;;5.97;1.20;;;;;;;;;;5087144;28;20024;-67
2023/07/25 02:14:04;;;;;;;4.43;1.20;;;;;;;;;;5089172;28;20265;-67
2023/07/25 02:16:29;;;;;;;3.43;0.90;;;;;;;;;;5083570;28;20023;-66
2023/07/25 02:18:54;;;;;;;3.87;1.10;;;;;;;;;;5088746;28;21640;-66
2023/07/25 02:21:20;;;;;;;4.50;1.20;;;;;;;;;;5084406;28;20260;-66
2023/07/25 02:23:45;;;;;;;3.20;1.00;;;;;;;;;;5083807;28;20323;-64
2023/07/25 02:26:10;;;;;;;5.53;1.30;;;;;;;;;;5083073;28;20345;-68
2023/07/25 02:28:35;;;;;;;5.10;1.50;;;;;;;;;;5081198;28;20262;-66
2023/07/25 02:31:00;;;;;;;5.27;1.83;;;;;;;;;;5087481;28;20031;-67
2023/07/25 02:33:27;;;;;;;5.03;1.48;;;;;;;;;;5090244;28;20078;-64
2023/07/25 02:35:52;;;;;;;4.93;1.67;;;;;;;;;;5085094;28;20770;-68
2023/07/25 02:38:20;;;;;;;4.83;1.40;;;;;;;;;;5091469;28;20110;-67
2023/07/25 02:40:48;;;;;;;4.18;1.50;;;;;;;;;;5090000;28;20268;-66
2023/07/25 02:43:18;;;;;;;5.10;1.75;;;;;;;;;;5094644;28;20529;-70
2023/07/25 02:45:43;;;;;;;4.65;1.52;;;;;;;;;;5082251;28;20538;-68
2023/07/25 02:48:08;;;;;;;5.87;1.83;;;;;;;;;;5086992;28;20023;-66
2023/07/25 02:50:36;;;;;;;4.13;1.52;;;;;;;;;;5086498;28;20729;-67
2023/07/25 02:53:04;;;;;;;4.30;1.65;;;;;;;;;;5084840;28;20115;-69
2023/07/25 02:55:31;;;;;;;4.55;1.67;;;;;;;;;;5092817;28;20022;-67
2023/07/25 02:57:57;;;;;;;5.35;1.70;;;;;;;;;;5088868;28;20024;-67
2023/07/25 03:00:22;;;;;;;4.17;1.50;;;;;;;;;;5088936;28;20693;-68
2023/07/25 03:02:47;;;;;;;4.23;1.40;;;;;;;;;;5093379;28;20024;-69
2023/07/25 03:05:12;;;;;;;4.43;1.63;;;;;;;;;;5087398;28;20249;-66
2023/07/25 03:07:38;;;;;;;5.18;1.65;;;;;;;;;;5087204;28;20020;-67
2023/07/25 03:10:05;;;;;;;4.50;1.70;;;;;;;;;;5086213;28;20034;-66
2023/07/25 03:12:31;;;;;;;4.95;1.58;;;;;;;;;;5087981;28;20251;-66
2023/07/25 03:14:56;;;;;;;6.13;1.92;;;;;;;;;;5084830;28;20023;-66
2023/07/25 03:17:21;;;;;;;6.18;1.60;;;;;;;;;;5085664;28;20350;-65
2023/07/25 03:19:47;;;;;;;4.40;1.63;;;;;;;;;;5088102;28;20474;-67
2023/07/25 03:22:12;;;;;;;4.13;1.40;;;;;;;;;;5092166;28;20261;-68
2023/07/25 03:24:40;;;;;;;4.67;1.83;;;;;;;;;;5090992;28;20024;-64
2023/07/25 03:27:08;;;;;;;4.43;1.60;;;;;;;;;;5094330;28;20249;-66
2023/07/25 03:29:35;;;;;;;4.90;1.60;;;;;;;;;;5087474;28;20094;-67
2023/07/25 03:32:03;;;;;;;5.30;1.70;;;;;;;;;;5087181;28;20042;-67
2023/07/25 03:34:30;;;;;;;4.13;1.70;;;;;;;;;;5091609;28;20390;-68
2023/07/25 03:36:58;;;;;;;5.40;2.00;;;;;;;;;;5087005;28;20015;-65
2023/07/25 03:39:25;;;;;;;4.32;1.80;;;;;;;;;;5090092;28;20020;-66
2023/07/25 03:41:51;;;;;;;7.45;2.17;;;;;;;;;;5090669;28;20031;-67
2023/07/25 03:44:17;;;;;;;4.83;1.70;;;;;;;;;;5092070;28;20028;-68
2023/07/25 03:46:45;;;;;;;5.40;1.85;;;;;;;;;;5083835;28;20258;-67
2023/07/25 03:49:11;;;;;;;4.57;1.63;;;;;;;;;;5095780;28;20099;-67
2023/07/25 03:51:36;;;;;;;5.22;1.65;;;;;;;;;;5089592;28;20744;-64
2023/07/25 03:54:08;;;;;;;4.50;1.88;;;;;;;;;;5086377;28;20798;-68
2023/07/25 03:56:33;;;;;;;5.75;1.77;;;;;;;;;;5096007;28;20461;-64
2023/07/25 03:58:59;;;;;;;6.20;2.22;;;;;;;;;;5089079;28;20008;-68
2023/07/25 04:01:25;;;;;;;5.53;1.80;;;;;;;;;;5088357;28;20143;-65
2023/07/25 04:03:50;;;;;;;4.75;1.60;;;;;;;;;;5090210;28;20020;-66
2023/07/25 04:06:15;;;;;;;5.83;1.93;;;;;;;;;;5089251;28;20119;-68
2023/07/25 04:08:43;;;;;;;5.30;1.93;;;;;;;;;;5091693;28;20269;-66
2023/07/25 04:11:08;;;;;;;4.30;1.88;;;;;;;;;;5093836;28;20260;-65
2023/07/25 04:13:33;;;;;;;6.03;1.90;;;;;;;;;;5087504;28;20012;-65
2023/07/25 04:15:59;;;;;;;5.90;1.70;;;;;;;;;;5087186;28;20027;-66
2023/07/25 04:18:24;;;;;;;5.53;1.93;;;;;;;;;;5092637;28;20039;-65
2023/07/25 04:20:49;;;;;;;4.70;1.93;;;;;;;;;;5086407;28;21287;-66
2023/07/25 04:23:15;;;;;;;4.87;2.10;;;;;;;;;;5093561;28;20265;-64
2023/07/25 04:25:40;;;;;;;5.35;1.80;;;;;;;;;;5078968;28;20283;-65
2023/07/25 04:28:06;;;;;;;5.57;1.95;;;;;;;;;;5086659;28;20040;-68
2023/07/25 04:30:32;;;;;;;6.32;1.90;;;;;;;;;;5085504;28;20122;-65
2023/07/25 04:33:02;;;;;;;6.25;2.00;;;;;;;;;;5080027;28;20158;-66
2023/07/25 04:35:27;;;;;;;5.20;2.22;;;;;;;;;;5093040;28;20026;-67
2023/07/25 04:37:52;;;;;;;5.30;1.87;;;;;;;;;;5089998;28;20016;-68
2023/07/25 04:40:20;;;;;;;4.63;1.90;;;;;;;;;;5087527;28;20943;-68
2023/07/25 04:42:47;;;;;;;4.93;1.98;;;;;;;;;;5094741;28;20023;-68
2023/07/25 04:45:13;;;;;;;5.65;2.03;;;;;;;;;;5084436;28;20025;-67
2023/07/25 04:47:38;;;;;;;6.40;2.20;;;;;;;;;;5088853;28;20012;-66
2023/07/25 04:50:03;;;;;;;4.87;2.20;;;;;;;;;;5092308;28;20266;-68
2023/07/25 04:52:31;;;;;;;4.90;1.73;;;;;;;;;;5092095;28;20992;-67
2023/07/25 04:54:58;;;;;;;4.60;2.00;;;;;;;;;;5081828;28;20023;-68
2023/07/25 04:57:26;;;;;;;6.35;2.00;;;;;;;;;;5087874;28;20135;-64
2023/07/25 04:59:54;;;;;;;6.50;2.03;;;;;;;;;;5086249;28;20032;-64
2023/07/25 05:02:20;;;;;;;5.35;2.00;;;;;;;;;;5080451;28;20034;-68
2023/07/25 05:04:45;;;;;;;6.43;2.28;;;;;;;;;;5082463;28;20623;-68
2023/07/25 05:07:10;;;;;;;6.00;2.30;;;;;;;;;;5080317;28;22023;-66
2023/07/25 05:09:38;;;;;;;6.23;2.47;;;;;;;;;;5085757;28;20081;-70
2023/07/25 05:12:04;;;;;;;5.53;2.10;;;;;;;;;;5078483;28;20258;-65
2023/07/25 05:14:32;;;;;;;5.15;2.05;;;;;;;;;;5086405;28;20618;-66
2023/07/25 05:16:59;;;;;;;7.07;2.08;;;;;;;;;;5088084;28;20122;-68
2023/07/25 05:19:27;;;;;;;4.30;1.70;;;;;;;;;;5081980;28;20109;-67
2023/07/25 05:21:52;;;;;;;6.35;2.20;;;;;;;;;;5087922;28;20045;-68
2023/07/25 05:24:17;;;;;;;6.17;2.00;;;;;;;;;;5089907;28;20498;-64
2023/07/25 05:26:42;;;;;;;5.53;2.00;;;;;;;;;;5075703;28;20857;-68
2023/07/25 05:29:10;;;;;;;7.67;2.00;;;;;;;;;;5093840;28;20127;-66
2023/07/25 05:31:35;;;;;;;4.60;1.67;;;;;;;;;;5088822;28;20027;-66
2023/07/25 05:34:00;;;;;;;5.03;2.00;;;;;;;;;;5087461;28;20999;-64
2023/07/25 05:36:26;;;;;;;4.33;1.90;;;;;;;;;;5092777;28;20347;-65
2023/07/25 05:38:51;;;;;;;4.60;1.50;;;;;;;;;;5085481;28;20273;-64
2023/07/25 05:41:17;;;;;;;6.47;1.95;;;;;;;;;;5087574;28;20258;-64
2023/07/25 05:43:42;;;;;;;5.05;1.95;;;;;;;;;;5080482;28;20027;-65
2023/07/25 05:46:08;;;;;;;5.30;2.17;;;;;;;;;;5083149;28;20020;-66
2023/07/25 05:48:33;;;;;;;5.50;2.30;;;;;;;;;;5085603;28;20669;-67
2023/07/25 05:50:59;;;;;;;7.07;2.30;;;;;;;;;;5086798;28;20034;-64
2023/07/25 05:53:27;;;;;;;4.60;2.00;;;;;;;;;;5088980;28;20039;-65
2023/07/25 05:55:54;;;;;;;7.13;2.67;;;;;;;;;;5087301;28;20746;-67
2023/07/25 05:58:22;;;;;;;7.45;2.58;;;;;;;;;;5085458;28;20030;-64
2023/07/25 06:00:49;;;;;;;6.55;2.10;;;;;;;;;;5083094;28;21377;-64
2023/07/25 06:03:15;;;;;;;5.75;2.38;;;;;;;;;;5085825;28;20020;-65
2023/07/25 06:05:41;;;;;;;7.50;2.50;;;;;;;;;;5084191;28;20140;-66
2023/07/25 06:08:06;;;;;;;7.00;2.42;;;;;;;;;;5098366;28;20035;-68
2023/07/25 06:10:31;;;;;;;5.53;2.13;;;;;;;;;;5093944;28;20102;-67
2023/07/25 06:12:57;;;;;;;5.75;2.40;;;;;;;;;;5084758;28;20039;-66
2023/07/25 06:15:22;;;;;;;6.72;2.83;;;;;;;;;;5092041;28;20099;-69
2023/07/25 06:17:47;;;;;;;7.53;2.97;;;;;;;;;;5087301;28;20044;-66
2023/07/25 06:20:13;;;;;;;5.20;2.40;;;;;;;;;;5082304;28;20315;-64
2023/07/25 06:22:40;;;;;;;6.13;2.30;;;;;;;;;;5089428;28;20030;-65
2023/07/25 06:25:07;;;;;;;6.07;2.17;;;;;;;;;;5091581;28;20816;-68
2023/07/25 06:27:33;;;;;;;5.53;2.40;;;;;;;;;;5089229;28;20042;-65
2023/07/25 06:29:58;;;;;;;4.72;2.10;;;;;;;;;;5087611;28;20027;-68
2023/07/25 06:32:23;;;;;;;5.82;2.03;;;;;;;;;;5091017;28;20023;-68
2023/07/25 06:34:48;;;;;;;5.85;2.17;;;;;;;;;;5095489;28;20640;-67
2023/07/25 06:37:17;;;;;;;5.15;1.90;;;;;;;;;;5086575;28;20331;-66
2023/07/25 06:39:42;;;;;;;6.07;2.35;;;;;;;;;;5088064;28;20041;-65
2023/07/25 06:42:07;;;;;;;5.50;2.10;;;;;;;;;;5091554;28;20398;-66
2023/07/25 06:44:33;;;;;;;5.63;1.98;;;;;;;;;;5090821;28;20035;-67
2023/07/25 06:46:58;;;;;;;5.40;2.10;;;;;;;;;;5089631;28;20108;-65
2023/07/25 06:49:23;;;;;;;5.05;2.10;;;;;;;;;;5090644;28;20490;-67
2023/07/25 06:51:49;;;;;;;4.72;2.10;;;;;;;;;;5090347;28;20642;-65
2023/07/25 06:54:14;;;;;;;6.25;2.13;;;;;;;;;;5087903;28;20054;-66
2023/07/25 06:56:40;;;;;;;7.50;2.20;;;;;;;;;;5088860;28;20657;-67
2023/07/25 06:59:05;;;;;;;5.97;2.17;;;;;;;;;;5086427;28;20407;-64
2023/07/25 07:01:30;;;;;;;4.93;2.17;;;;;;;;;;5087271;28;20253;-64
2023/07/25 07:03:55;;;;;;;5.90;2.30;;;;;;;;;;5083430;28;20274;-65
2023/07/25 07:06:21;;;;;;;6.07;2.30;;;;;;;;;;5090639;28;20612;-66
2023/07/25 07:08:46;;;;;;;7.55;2.75;;;;;;;;;;5088463;28;20040;-66
2023/07/25 07:11:16;;;;;;;5.68;2.30;;;;;;;;;;5093816;28;20019;-67
2023/07/25 07:13:42;;;;;;;6.60;2.58;;;;;;;;;;5091911;28;20019;-67
2023/07/25 07:16:08;;;;;;;6.67;2.50;;;;;;;;;;5089218;28;20129;-68
2023/07/25 07:18:34;;;;;;;5.90;2.65;;;;;;;;;;5090384;28;20354;-64
2023/07/25 07:20:59;;;;;;;7.73;2.70;;;;;;;;;;5090486;28;20109;-68
2023/07/25 07:23:24;;;;;;;5.90;2.70;;;;;;;;;;5079538;28;20261;-65
2023/07/25 07:25:50;;;;;;;5.87;2.53;;;;;;;;;;5084574;28;21061;-66
2023/07/25 07:28:15;;;;;;;6.32;2.67;;;;;;;;;;5085363;28;20388;-70
2023/07/25 07:30:40;;;;;;;5.25;2.38;;;;;;;;;;5087659;28;20051;-63
2023/07/25 07:33:06;;;;;;;5.95;2.60;;;;;;;;;;5090922;28;20107;-66
2023/07/25 07:35:31;;;;;;;6.60;2.70;;;;;;;;;;5086784;28;20031;-69
2023/07/25 07:37:57;;;;;;;5.80;2.58;;;;;;;;;;5087618;28;20984;-67
2023/07/25 07:40:23;;;;;;;5.20;2.40;;;;;;;;;;5088183;27;20028;-70
2023/07/25 07:42:48;;;;;;;7.68;3.35;;;;;;;;;;5089907;28;20500;-68
2023/07/25 07:45:13;;;;;;;5.53;2.57;;;;;;;;;;5088080;28;20329;-67
2023/07/25 07:47:41;;;;;;;6.88;2.40;;;;;;;;;;5094083;27;20246;-65
2023/07/25 07:50:06;;;;;;;5.68;2.63;;;;;;;;;;5088478;28;20034;-68
2023/07/25 07:52:33;;;;;;;6.53;2.70;;;;;;;;;;5090984;28;20020;-65
2023/07/25 07:54:58;;;;;;;6.88;2.90;;;;;;;;;;5083596;28;20116;-68
2023/07/25 07:57:24;;;;;;;7.90;2.70;;;;;;;;;;5084361;28;20110;-64
2023/07/25 07:59:49;;;;;;;6.23;2.70;;;;;;;;;;5083764;28;20035;-67
2023/07/25 08:02:17;;;;;;;7.03;2.70;;;;;;;;;;5084982;28;20282;-66
2023/07/25 08:04:42;;;;;;;5.85;2.83;;;;;;;;;;5084943;28;20019;-65
2023/07/25 08:07:07;;;;;;;6.63;3.00;;;;;;;;;;5082838;28;20582;-65
2023/07/25 08:09:33;;;;;;;7.00;2.67;;;;;;;;;;5089694;28;20294;-66
2023/07/25 08:12:03;;;;;;;5.85;2.25;;;;;;;;;;5079869;28;20020;-67
2023/07/25 08:14:28;;;;;;;6.03;2.35;;;;;;;;;;5087666;28;20035;-67
2023/07/25 08:16:53;;;;;;;5.33;2.27;;;;;;;;;;5087438;28;20019;-64
2023/07/25 08:19:19;;;;;;;6.47;2.80;;;;;;;;;;5082829;28;20054;-65
2023/07/25 08:21:44;;;;;;;6.25;2.40;;;;;;;;;;5091067;28;20297;-68
2023/07/25 08:24:09;;;;;;;6.40;2.33;;;;;;;;;;5090460;28;20133;-65
2023/07/25 08:26:34;;;;;;;6.40;2.40;;;;;;;;;;5088982;28;20023;-66
2023/07/25 08:29:00;;;;;;;5.17;2.40;;;;;;;;;;5085036;28;20035;-66
2023/07/25 08:31:25;;;;;;;5.80;2.00;;;;;;;;;;5089633;28;20024;-66
2023/07/25 08:33:52;;;;;;;6.63;2.03;;;;;;;;;;5084738;28;20714;-65
2023/07/25 08:36:18;;;;;;;6.93;2.00;;;;;;;;;;5089993;28;20020;-65
2023/07/25 08:38:45;;;;;;;4.07;1.67;;;;;;;;;;5086803;28;20046;-67
2023/07/25 08:41:19;;;;;;;4.18;1.70;;;;;;;;;;5087726;28;20860;-65
2023/07/25 08:43:44;;;;;;;4.50;1.88;;;;;;;;;;5085792;28;20032;-65
2023/07/25 08:46:10;;;;;;;4.35;1.80;;;;;;;;;;5084478;28;20415;-62
2023/07/25 08:48:39;;;;;;;5.03;1.80;;;;;;;;;;5083531;28;20046;-66
2023/07/25 08:51:16;;;;;;;5.13;1.70;;;;;;;;;;5086190;28;20485;-65
2023/07/25 08:53:52;;;;;;;5.47;2.08;;;;;;;;;;5085641;28;20150;-64
2023/07/25 08:56:18;;;;;;;5.97;1.67;;;;;;;;;;5085216;28;20031;-63
2023/07/25 08:58:44;;;;;;;5.25;1.83;;;;;;;;;;5085493;28;20032;-65
2023/07/25 09:01:09;;;;;;;4.38;1.80;;;;;;;;;;5085554;28;20028;-64
2023/07/25 09:03:35;;;;;;;5.93;2.00;;;;;;;;;;5081964;28;20020;-66
2023/07/25 09:06:03;;;;;;;5.75;1.70;;;;;;;;;;5087672;28;20081;-65
2023/07/25 09:08:28;;;;;;;6.45;1.98;;;;;;;;;;5084496;28;20016;-67
2023/07/25 09:10:55;;;;;;;4.80;1.70;;;;;;;;;;5087926;28;20031;-64
2023/07/25 09:13:20;;;;;;;6.03;1.80;;;;;;;;;;5086123;28;20947;-66
2023/07/25 09:15:45;;;;;;;5.70;1.67;;;;;;;;;;5082475;28;20012;-65
2023/07/25 09:18:13;;;;;;;4.60;1.57;;;;;;;;;;5088854;28;20285;-65
2023/07/25 09:20:38;;;;;;;6.93;1.95;;;;;;;;;;5093311;28;20284;-66
2023/07/25 09:23:06;;;;;;;4.20;1.80;;;;;;;;;;5091724;28;20770;-63
2023/07/25 09:25:33;;;;;;;4.85;1.70;;;;;;;;;;5085884;28;20797;-66
2023/07/25 09:27:58;;;;;;;5.80;1.98;;;;;;;;;;5089530;28;20019;-65
2023/07/25 09:30:25;;;;;;;4.30;1.83;;;;;;;;;;5090604;28;20042;-66
2023/07/25 09:32:51;;;;;;;4.65;1.83;;;;;;;;;;5080117;28;20422;-65
2023/07/25 09:35:16;;;;;;;6.00;1.98;;;;;;;;;;5085558;28;20490;-67
2023/07/25 09:37:44;;;;;;;4.90;1.80;;;;;;;;;;5087415;28;20020;-68
2023/07/25 09:40:14;;;;;;;5.82;1.98;;;;;;;;;;5078029;28;20388;-66
2023/07/25 09:42:43;;;;;;;4.53;1.80;;;;;;;;;;5086647;28;20047;-67
2023/07/25 09:45:09;;;;;;;6.05;1.80;;;;;;;;;;5082814;28;20745;-67
2023/07/25 09:47:36;;;;;;;4.63;1.83;;;;;;;;;;5091148;28;20103;-67
2023/07/25 09:50:02;;;;;;;5.47;1.77;;;;;;;;;;5082283;28;20119;-65
2023/07/25 09:52:36;;;;;;;5.20;2.00;;;;;;;;;;5085897;28;20020;-69
2023/07/25 09:55:01;;;;;;;5.57;1.80;;;;;;;;;;5090477;28;20089;-65
2023/07/25 09:57:27;;;;;;;4.95;2.00;;;;;;;;;;5085531;28;20598;-64
2023/07/25 09:59:52;;;;;;;4.97;2.00;;;;;;;;;;5080649;28;20112;-67
2023/07/25 10:02:18;;;;;;;5.28;2.28;;;;;;;;;;5083408;28;21280;-66
2023/07/25 10:04:45;;;;;;;5.20;2.03;;;;;;;;;;5078006;28;20016;-63
2023/07/25 10:07:11;;;;;;;5.68;1.90;;;;;;;;;;5088641;28;20308;-66
2023/07/25 10:09:37;;;;;;;5.13;1.80;;;;;;;;;;5085662;28;20119;-65
2023/07/25 10:12:03;;;;;;;5.70;2.03;;;;;;;;;;5080303;28;20024;-64
2023/07/25 10:14:28;;;;;;;5.03;1.98;;;;;;;;;;5087973;28;20353;-65
2023/07/25 10:16:54;;;;;;;5.20;2.00;;;;;;;;;;5084141;28;20782;-64
2023/07/25 10:19:19;;;;;;;5.85;1.92;;;;;;;;;;5090253;28;20043;-65
2023/07/25 10:21:49;;;;;;;5.20;2.10;;;;;;;;;;5085007;28;20019;-67
2023/07/25 10:24:14;;;;;;;4.30;1.75;;;;;;;;;;5086641;28;20257;-68
2023/07/25 10:26:56;;;;;;;5.43;1.98;;;;;;;;;;5084916;28;20081;-65
2023/07/25 10:29:37;;;;;;;4.47;2.13;;;;;;;;;;5086156;28;20023;-66
2023/07/25 10:32:03;;;;;;;5.85;2.10;;;;;;;;;;5088820;28;20035;-69
2023/07/25 10:34:45;;;;;;;5.13;2.20;;;;;;;;;;5080800;28;20097;-65
2023/07/25 10:37:20;;;;;;;4.97;2.00;;;;;;;;;;5081854;28;20055;-70
2023/07/25 10:39:48;;;;;;;4.57;1.85;;;;;;;;;;5089307;28;20027;-62
2023/07/25 10:42:18;;;;;;;5.13;2.22;;;;;;;;;;5090674;28;20088;-62
2023/07/25 10:44:44;;;;;;;5.13;2.38;;;;;;;;;;5080461;28;20104;-65
2023/07/25 10:47:28;;;;;;;5.43;2.13;;;;;;;;;;5086713;28;20723;-65
2023/07/25 10:49:56;;;;;;;5.30;2.25;;;;;;;;;;5080839;28;20039;-61
2023/07/25 10:52:42;;;;;;;5.97;2.10;;;;;;;;;;5084129;28;20042;-64
2023/07/25 10:55:09;;;;;;;5.13;2.17;;;;;;;;;;5076658;28;20125;-64
2023/07/25 10:57:36;;;;;;;5.72;2.22;;;;;;;;;;5091748;28;20540;-63
2023/07/25 11:00:08;;;;;;;5.60;2.00;;;;;;;;;;5084933;28;20101;-65
2023/07/25 11:02:40;;;;;;;5.20;2.17;;;;;;;;;;5088596;28;20016;-62
2023/07/25 11:05:13;;;;;;;5.63;2.45;;;;;;;;;;5085198;28;20011;-62
2023/07/25 11:07:39;;;;;;;5.70;2.40;;;;;;;;;;5086263;28;20024;-66
2023/07/25 11:10:05;;;;;;;5.25;2.20;;;;;;;;;;5087286;28;20023;-64
2023/07/25 11:12:33;;;;;;;6.10;2.30;;;;;;;;;;5089429;28;20736;-63
2023/07/25 11:15:01;;;;;;;5.45;1.95;;;;;;;;;;5088969;28;20019;-66
2023/07/25 11:17:29;;;;;;;5.88;2.28;;;;;;;;;;5090635;28;20947;-66
2023/07/25 11:20:15;;;;;;;5.95;2.45;;;;;;;;;;5088389;28;20058;-63
2023/07/25 11:22:41;;;;;;;6.20;2.30;;;;;;;;;;5093446;28;20121;-65
2023/07/25 11:25:09;;;;;;;5.00;2.27;;;;;;;;;;5089520;28;20170;-65
2023/07/25 11:27:47;;;;;;;5.97;2.20;;;;;;;;;;5062923;28;20269;-61
2023/07/25 11:30:13;;;;;;;5.50;2.25;;;;;;;;;;5075462;28;20023;-64
2023/07/25 11:32:39;;;;;;;4.90;2.10;;;;;;;;;;5084628;28;20072;-62
2023/07/25 11:35:05;;;;;;;4.63;2.20;;;;;;;;;;5086963;28;20020;-64
2023/07/25 11:37:31;;;;;;;5.32;2.28;;;;;;;;;;5088595;28;20046;-63
2023/07/25 11:39:56;;;;;;;4.97;2.20;;;;;;;;;;5091574;28;20704;-64
2023/07/25 11:42:23;;;;;;;5.20;2.20;;;;;;;;;;5094533;28;20051;-63
2023/07/25 11:44:49;;;;;;;5.00;2.22;;;;;;;;;;5093683;28;20016;-65
2023/07/25 11:47:16;;;;;;;4.57;1.92;;;;;;;;;;5089639;28;20038;-61
2023/07/25 11:49:42;;;;;;;6.03;2.20;;;;;;;;;;5091871;28;20113;-64
2023/07/25 11:52:10;;;;;;;5.15;2.10;;;;;;;;;;5093554;28;20119;-65
2023/07/25 11:54:35;;;;;;;6.18;2.17;;;;;;;;;;5087801;28;20412;-62
2023/07/25 11:57:01;;;;;;;4.35;2.05;;;;;;;;;;5090485;28;20062;-63
2023/07/25 11:59:29;;;;;;;5.07;2.35;;;;;;;;;;5095102;28;20035;-65
2023/07/25 12:02:04;;;;;;;5.20;2.30;;;;;;;;;;5086413;28;20625;-63
2023/07/25 12:04:29;;;;;;;5.20;2.10;;;;;;;;;;5092738;28;20482;-68
2023/07/25 12:06:57;;;;;;;6.17;2.50;;;;;;;;;;5093062;28;20058;-63
2023/07/25 12:09:27;;;;;;;5.20;2.28;;;;;;;;;;5096211;28;20106;-67
2023/07/25 12:11:53;;;;;;;5.80;2.33;;;;;;;;;;5108839;27;20084;-66
2023/07/25 12:14:18;;;;;;;5.72;2.70;;;;;;;;;;5091461;28;20034;-65
2023/07/25 12:16:46;;;;;;;5.40;2.50;;;;;;;;;;5091065;28;20020;-65
2023/07/25 12:19:14;;;;;;;5.38;2.38;;;;;;;;;;5096875;28;20463;-65
2023/07/25 12:21:43;;;;;;;6.50;2.75;;;;;;;;;;5092144;28;20023;-65
2023/07/25 12:24:14;;;;;;;5.70;2.38;;;;;;;;;;5092063;28;20039;-65
2023/07/25 12:26:46;;;;;;;6.60;2.58;;;;;;;;;;5093010;28;20023;-63
2023/07/25 12:29:12;;;;;;;5.65;2.35;;;;;;;;;;5091187;28;20023;-61
2023/07/25 12:31:38;;;;;;;5.35;2.30;;;;;;;;;;5089194;28;20031;-66
2023/07/25 12:34:03;;;;;;;6.47;2.50;;;;;;;;;;5097236;28;20023;-65
2023/07/25 12:36:28;;;;;;;5.90;2.47;;;;;;;;;;5094220;28;20356;-64
2023/07/25 12:38:53;;;;;;;4.60;2.00;;;;;;;;;;5088203;28;20700;-59
2023/07/25 12:41:19;;;;;;;5.57;2.17;;;;;;;;;;5087951;28;20167;-65
2023/07/25 12:43:46;;;;;;;6.00;2.47;;;;;;;;;;5094408;28;20536;-66
2023/07/25 12:46:12;;;;;;;6.15;2.20;;;;;;;;;;5095729;28;20339;-63
2023/07/25 12:48:37;;;;;;;4.60;2.20;;;;;;;;;;5095670;28;20492;-62
2023/07/25 12:51:02;;;;;;;4.90;2.40;;;;;;;;;;5096157;28;21241;-67
2023/07/25 12:53:28;;;;;;;4.50;2.20;;;;;;;;;;5092861;28;20038;-64
2023/07/25 12:55:55;;;;;;;5.87;2.40;;;;;;;;;;5095765;28;20008;-64
2023/07/25 12:58:21;;;;;;;5.35;2.63;;;;;;;;;;5090169;28;20329;-63
2023/07/25 13:00:46;;;;;;;5.53;2.50;;;;;;;;;;5093189;28;20073;-64
2023/07/25 13:03:16;;;;;;;5.30;2.30;;;;;;;;;;5087112;28;20100;-63
2023/07/25 13:05:41;;;;;;;5.93;2.25;;;;;;;;;;5097219;28;20106;-63
2023/07/25 13:08:09;;;;;;;5.78;2.80;;;;;;;;;;5092988;28;20021;-65
2023/07/25 13:10:37;;;;;;;5.07;2.50;;;;;;;;;;5097267;28;20535;-64
2023/07/25 13:13:04;;;;;;;7.88;2.70;;;;;;;;;;5091685;28;20525;-63
2023/07/25 13:15:30;;;;;;;5.53;2.50;;;;;;;;;;5093952;28;20061;-63
2023/07/25 13:17:56;;;;;;;5.40;2.65;;;;;;;;;;5092780;28;20050;-63
2023/07/25 13:20:23;;;;;;;5.70;2.47;;;;;;;;;;5095028;28;20602;-63
2023/07/25 13:22:48;;;;;;;5.55;2.53;;;;;;;;;;5092930;27;20044;-65
2023/07/25 13:25:14;;;;;;;5.40;2.60;;;;;;;;;;5086270;28;20502;-64
2023/07/25 13:27:39;;;;;;;6.47;2.80;;;;;;;;;;5092151;28;20245;-62
2023/07/25 13:30:05;;;;;;;5.33;2.37;;;;;;;;;;5093524;28;20034;-65
2023/07/25 13:32:30;;;;;;;5.45;2.60;;;;;;;;;;5097404;28;20019;-66
2023/07/25 13:34:55;;;;;;;4.95;2.80;;;;;;;;;;5094321;28;20027;-62
2023/07/25 13:37:21;;;;;;;5.60;2.93;;;;;;;;;;5094258;28;20019;-65
2023/07/25 13:39:46;;;;;;;5.63;2.93;;;;;;;;;;5092458;28;20055;-64
2023/07/25 13:42:11;;;;;;;5.93;2.80;;;;;;;;;;5096318;28;20861;-62
2023/07/25 13:44:36;;;;;;;5.50;2.77;;;;;;;;;;5091203;28;20020;-64
2023/07/25 13:47:02;;;;;;;5.40;2.50;;;;;;;;;;5084275;28;20285;-65
2023/07/25 13:49:32;;;;;;;5.65;2.65;;;;;;;;;;5079792;28;20262;-63
2023/07/25 13:51:58;;;;;;;5.38;2.38;;;;;;;;;;5080381;28;20055;-65
2023/07/25 13:54:23;;;;;;;5.75;2.90;;;;;;;;;;5078796;28;20156;-63
2023/07/25 13:56:48;;;;;;;6.15;2.95;;;;;;;;;;5095566;27;20420;-66
2023/07/25 13:59:14;;;;;;;5.70;2.90;;;;;;;;;;5080328;28;20051;-64
2023/07/25 14:01:41;;;;;;;6.75;3.20;;;;;;;;;;5084561;28;20412;-67
2023/07/25 14:04:07;;;;;;;6.05;2.92;;;;;;;;;;5077954;28;20039;-66
2023/07/25 14:06:32;;;;;;;7.22;3.00;;;;;;;;;;5078211;28;20140;-64
2023/07/25 14:08:58;;;;;;;5.78;3.13;;;;;;;;;;5085378;28;20050;-64
2023/07/25 14:11:23;;;;;;;5.37;2.77;;;;;;;;;;5075294;28;20032;-64
2023/07/25 14:13:51;;;;;;;6.00;3.10;;;;;;;;;;5078614;28;20242;-65
2023/07/25 14:16:16;;;;;;;5.60;2.90;;;;;;;;;;5080496;28;20081;-64
2023/07/25 14:18:44;;;;;;;5.77;3.20;;;;;;;;;;5076891;28;20052;-64
2023/07/25 14:21:09;;;;;;;6.40;3.13;;;;;;;;;;5086076;28;20030;-64
2023/07/25 14:23:34;;;;;;;5.50;3.10;;;;;;;;;;5078678;28;20777;-63
2023/07/25 14:26:02;;;;;;;6.97;2.90;;;;;;;;;;5085829;28;20330;-63
2023/07/25 14:28:27;;;;;;;7.32;3.08;;;;;;;;;;5077573;28;20644;-63
2023/07/25 14:30:53;;;;;;;6.35;3.33;;;;;;;;;;5080364;28;20012;-66
2023/07/25 14:33:20;;;;;;;6.33;3.30;;;;;;;;;;5080972;28;20016;-63
2023/07/25 14:35:46;;;;;;;6.45;3.42;;;;;;;;;;5088585;28;20035;-65
2023/07/25 14:38:11;;;;;;;7.03;3.47;;;;;;;;;;5078482;28;20055;-65